Norfolk, Virginia
Traffic Map
Current Weather Conditions
Norfolk, Virginia
Clear Haze
Clear
40°
Feels Like: 40°
Wind Chill: 40° Ceiling: Unl
Heat Index: 40° Visibility: 1.7mi
Dew Point: 40° Wind: 0mph
Humidity: 100% Direction: ° ()
Pressure: 30.19in Gusts: 0mph
Raw Report DataKORF 190551Z 00000KT 1 3/4SM BR CLR 04/04 A3019 RMK AO2 SLP224 T00440044 10094 20044 56007
Traffic Incident Summary
Active as of:
Severity:
Category:
InformationThere was an issue retrieving the traffic information for this location. Please try a different location or try again shortly.
Advertisements